createdAt,value
2022-09-12T00:01:56.416Z,100.00
2022-09-12T00:04:58.396Z,100.00
2022-09-12T00:08:02.274Z,100.00
2022-09-12T00:11:07.024Z,100.00
2022-09-12T00:14:11.421Z,99.65
2022-09-12T00:17:13.546Z,100.00
2022-09-12T00:20:15.446Z,98.67
2022-09-12T00:23:18.124Z,97.52
2022-09-12T00:26:21.216Z,97.75
2022-09-12T00:29:24.174Z,98.23
2022-09-12T00:32:26.574Z,97.18
2022-09-12T00:35:28.878Z,96.96
2022-09-12T00:38:31.245Z,96.82
2022-09-12T00:41:37.545Z,97.74
2022-09-12T00:44:39.454Z,97.83
2022-09-12T00:47:42.161Z,97.12
2022-09-12T00:50:45.156Z,96.99
2022-09-12T00:53:49.225Z,96.57
2022-09-12T00:56:53.999Z,97.08
2022-09-12T01:00:00.227Z,97.05
2022-09-12T01:03:05.589Z,96.03
2022-09-12T01:06:21.662Z,97.17
2022-09-12T01:09:24.546Z,97.32
2022-09-12T01:12:27.353Z,97.74
2022-09-12T01:15:30.114Z,98.80
2022-09-12T01:18:50.739Z,99.38
2022-09-12T01:22:20.551Z,99.88
2022-09-12T01:25:32.375Z,100.00
2022-09-12T01:28:40.455Z,100.00
2022-09-12T01:32:02.492Z,100.00
2022-09-12T01:35:23.205Z,100.00
2022-09-12T01:38:38.214Z,100.00
2022-09-12T01:42:03.386Z,100.00
2022-09-12T01:45:10.652Z,100.00
2022-09-12T01:48:21.450Z,100.00
2022-09-12T01:51:26.455Z,100.00
2022-09-12T01:54:43.833Z,100.00
2022-09-12T01:57:59.221Z,100.00
2022-09-12T02:01:09.843Z,100.00
2022-09-12T02:04:21.864Z,100.00
2022-09-12T02:07:30.634Z,100.00
2022-09-12T02:10:42.638Z,100.00
2022-09-12T02:13:57.803Z,100.00
2022-09-12T02:17:06.287Z,100.00
2022-09-12T02:20:47.556Z,100.00
2022-09-12T02:23:55.576Z,100.00
2022-09-12T02:27:01.079Z,100.00
2022-09-12T02:30:03.128Z,100.00
2022-09-12T02:33:35.399Z,100.00
2022-09-12T02:37:13.629Z,100.00
2022-09-12T02:40:16.214Z,100.00
2022-09-12T02:43:18.475Z,100.00
2022-09-12T02:46:34.778Z,100.00
2022-09-12T02:49:37.392Z,100.00
2022-09-12T02:52:42.925Z,100.00
2022-09-12T02:55:47.395Z,100.00
2022-09-12T02:58:49.642Z,100.00
2022-09-12T03:02:00.828Z,100.00
2022-09-12T03:05:15.138Z,100.00
2022-09-12T03:08:36.006Z,100.00
2022-09-12T03:12:01.431Z,100.00
2022-09-12T03:15:11.189Z,100.00
2022-09-12T03:18:49.017Z,100.00
2022-09-12T03:22:20.070Z,100.00
2022-09-12T03:25:28.176Z,100.00
2022-09-12T03:28:31.673Z,100.00
2022-09-12T03:31:34.225Z,100.00
2022-09-12T03:34:35.994Z,100.00
2022-09-12T03:37:45.704Z,100.00
2022-09-12T03:40:51.365Z,100.00
2022-09-12T03:43:57.063Z,100.00
2022-09-12T03:47:01.647Z,100.00
2022-09-12T03:50:04.990Z,100.00
2022-09-12T03:53:16.550Z,100.00
2022-09-12T03:56:21.107Z,99.57
2022-09-12T03:59:23.074Z,99.66
2022-09-12T04:02:26.023Z,99.02
2022-09-12T04:05:30.461Z,99.48
2022-09-12T04:08:32.626Z,99.50
2022-09-12T04:11:37.250Z,99.03
2022-09-12T04:14:40.307Z,99.53
2022-09-12T04:17:42.612Z,100.00
2022-09-12T04:20:44.721Z,100.00
2022-09-12T04:23:48.181Z,100.00
2022-09-12T04:26:50.516Z,100.00
2022-09-12T04:29:54.336Z,100.00
2022-09-12T04:32:56.862Z,100.00
2022-09-12T04:36:07.243Z,100.00
2022-09-12T04:39:10.173Z,100.00
2022-09-12T04:42:16.904Z,100.00
2022-09-12T04:45:19.476Z,100.00
2022-09-12T04:48:22.310Z,100.00
2022-09-12T04:51:40.418Z,100.00
2022-09-12T04:54:45.866Z,99.23
2022-09-12T04:57:48.223Z,98.69
2022-09-12T05:00:53.224Z,96.48
2022-09-12T05:03:56.948Z,96.31
2022-09-12T05:07:00.788Z,95.22
2022-09-12T05:10:04.583Z,95.23
2022-09-12T05:13:07.517Z,95.85
2022-09-12T05:16:12.242Z,96.11
2022-09-12T05:19:15.153Z,95.14
2022-09-12T05:22:17.146Z,96.15
2022-09-12T05:25:19.006Z,94.19
2022-09-12T05:28:22.462Z,93.25
2022-09-12T05:31:26.320Z,94.30
2022-09-12T05:34:28.114Z,93.94
2022-09-12T05:37:31.584Z,92.56
2022-09-12T05:40:34.378Z,92.41
2022-09-12T05:43:44.557Z,92.05
2022-09-12T05:46:54.281Z,92.29
2022-09-12T05:49:59.888Z,92.32
2022-09-12T05:53:02.647Z,90.90
2022-09-12T05:56:08.843Z,90.11
2022-09-12T05:59:19.668Z,91.37
2022-09-12T06:02:22.239Z,92.55
2022-09-12T06:05:25.410Z,92.57
2022-09-12T06:08:28.176Z,93.04
2022-09-12T06:11:33.619Z,92.88
2022-09-12T06:14:36.435Z,92.25
2022-09-12T06:17:42.896Z,92.79
2022-09-12T06:20:44.854Z,92.22
2022-09-12T06:23:48.918Z,93.00
2022-09-12T06:26:52.965Z,92.42
2022-09-12T06:29:57.553Z,90.68
2022-09-12T06:32:59.862Z,92.36
2022-09-12T06:36:12.029Z,91.89
2022-09-12T06:39:20.494Z,91.22
2022-09-12T06:42:33.071Z,90.67
2022-09-12T06:45:35.134Z,89.24
2022-09-12T06:48:41.796Z,87.37
2022-09-12T06:51:44.837Z,88.39
2022-09-12T06:54:47.641Z,84.71
2022-09-12T06:57:49.677Z,84.17
2022-09-12T07:00:57.211Z,85.47
2022-09-12T07:04:03.697Z,83.57
2022-09-12T07:07:05.987Z,82.90
2022-09-12T07:10:08.642Z,80.97
2022-09-12T07:13:14.033Z,80.94
2022-09-12T07:16:19.727Z,81.82
2022-09-12T07:19:25.166Z,82.93
2022-09-12T07:22:28.000Z,82.39
2022-09-12T07:25:29.975Z,80.32
2022-09-12T07:28:34.099Z,79.93
2022-09-12T07:31:37.000Z,79.63
2022-09-12T07:34:38.945Z,79.26
2022-09-12T07:37:41.899Z,77.21
2022-09-12T07:40:44.092Z,76.85
2022-09-12T07:43:46.807Z,78.33
2022-09-12T07:46:48.969Z,78.90
2022-09-12T07:49:50.891Z,77.63
2022-09-12T07:52:56.077Z,76.44
2022-09-12T07:55:58.078Z,75.04
2022-09-12T07:59:02.980Z,74.54
2022-09-12T08:02:05.648Z,74.96
2022-09-12T08:05:08.924Z,75.17
2022-09-12T08:08:11.563Z,74.80
2022-09-12T08:11:30.517Z,73.39
2022-09-12T08:14:33.206Z,74.21
2022-09-12T08:17:35.518Z,73.13
2022-09-12T08:20:38.156Z,71.33
2022-09-12T08:23:40.281Z,71.38
2022-09-12T08:26:43.685Z,68.85
2022-09-12T08:29:45.476Z,69.52
2022-09-12T08:32:47.710Z,69.72
2022-09-12T08:35:50.209Z,70.19
2022-09-12T08:38:59.967Z,70.85
2022-09-12T08:42:05.034Z,70.80
2022-09-12T08:45:43.716Z,72.81
2022-09-12T08:48:47.515Z,73.04
2022-09-12T08:51:51.375Z,70.98
2022-09-12T08:54:55.308Z,70.27
2022-09-12T08:58:00.887Z,69.37
2022-09-12T09:01:12.757Z,69.13
2022-09-12T09:04:36.604Z,67.60
2022-09-12T09:08:22.212Z,68.42
2022-09-12T09:11:42.223Z,68.06
2022-09-12T09:15:10.466Z,66.64
2022-09-12T09:18:24.555Z,67.37
2022-09-12T09:21:31.834Z,67.11
2022-09-12T09:24:39.328Z,66.47
2022-09-12T09:27:52.441Z,66.28
2022-09-12T09:30:54.894Z,67.77
2022-09-12T09:34:00.731Z,66.84
2022-09-12T09:37:06.596Z,66.91
2022-09-12T09:40:24.843Z,67.48
2022-09-12T09:43:30.521Z,67.24
2022-09-12T09:46:33.919Z,69.26
2022-09-12T09:49:36.532Z,66.91
2022-09-12T09:52:39.727Z,66.18
2022-09-12T09:55:44.729Z,64.57
2022-09-12T09:58:47.565Z,64.52
2022-09-12T10:01:53.034Z,63.80
2022-09-12T10:04:57.721Z,61.83
2022-09-12T10:08:09.927Z,63.36
2022-09-12T10:11:28.991Z,61.31
2022-09-12T10:14:35.790Z,61.73
2022-09-12T10:17:44.220Z,63.12
2022-09-12T10:20:46.524Z,63.25
2022-09-12T10:24:00.274Z,63.40
2022-09-12T10:27:14.483Z,63.73
2022-09-12T10:30:19.975Z,64.18
2022-09-12T10:33:24.871Z,63.48
2022-09-12T10:36:39.797Z,64.94
2022-09-12T10:39:41.854Z,62.14
2022-09-12T10:42:51.123Z,62.20
2022-09-12T10:45:58.230Z,61.67
2022-09-12T10:49:13.964Z,60.98
2022-09-12T10:52:24.259Z,61.95
2022-09-12T10:55:32.543Z,62.98
2022-09-12T10:59:07.149Z,61.47
2022-09-12T11:02:20.461Z,62.02
2022-09-12T11:05:26.394Z,61.93
2022-09-12T11:08:28.643Z,61.32
2022-09-12T11:11:42.747Z,62.78
2022-09-12T11:15:11.232Z,60.72
2022-09-12T11:18:30.285Z,61.25
2022-09-12T11:21:32.131Z,59.87
2022-09-12T11:24:40.266Z,58.72
2022-09-12T11:28:00.748Z,59.04
2022-09-12T11:31:18.967Z,59.93
2022-09-12T11:34:55.360Z,60.51
2022-09-12T11:38:07.664Z,59.14
2022-09-12T11:41:31.512Z,60.38
2022-09-12T11:44:40.469Z,56.81
2022-09-12T11:47:49.131Z,58.76
2022-09-12T11:50:52.484Z,57.11
2022-09-12T11:54:30.686Z,57.84
2022-09-12T11:57:54.804Z,60.57
2022-09-12T12:01:03.736Z,56.66
2022-09-12T12:04:13.544Z,58.71
2022-09-12T12:07:19.655Z,58.33
2022-09-12T12:10:43.890Z,58.37
2022-09-12T12:13:53.776Z,57.81
2022-09-12T12:16:55.808Z,56.51
2022-09-12T12:20:07.458Z,56.88
2022-09-12T12:23:30.937Z,55.70
2022-09-12T12:26:42.975Z,56.31
2022-09-12T12:29:45.608Z,56.53
2022-09-12T12:32:47.787Z,56.76
2022-09-12T12:36:09.403Z,56.24
2022-09-12T12:39:51.312Z,57.09
2022-09-12T12:42:59.515Z,57.71
2022-09-12T12:46:05.574Z,58.56
2022-09-12T12:49:27.120Z,56.45
2022-09-12T12:52:31.574Z,56.75
2022-09-12T12:55:42.856Z,57.41
2022-09-12T12:58:46.607Z,58.41
2022-09-12T13:01:55.413Z,59.08
2022-09-12T13:04:59.849Z,59.65
2022-09-12T13:08:08.492Z,60.28
2022-09-12T13:11:30.642Z,59.96
2022-09-12T13:14:55.813Z,61.20
2022-09-12T13:18:33.421Z,59.00
2022-09-12T13:21:35.364Z,58.47
2022-09-12T13:24:45.474Z,57.30
2022-09-12T13:28:13.121Z,57.08
2022-09-12T13:31:15.518Z,57.48
2022-09-12T13:34:25.591Z,57.53
2022-09-12T13:37:39.287Z,56.55
2022-09-12T13:40:57.033Z,55.17
2022-09-12T13:43:58.890Z,54.86
2022-09-12T13:47:02.238Z,54.46
2022-09-12T13:50:06.371Z,54.30
2022-09-12T13:53:14.430Z,55.18
2022-09-12T13:56:21.113Z,56.06
2022-09-12T13:59:22.956Z,55.39
2022-09-12T14:02:29.526Z,54.61
2022-09-12T14:05:38.373Z,53.56
2022-09-12T14:08:43.519Z,54.28
2022-09-12T14:11:46.509Z,53.94
2022-09-12T14:14:50.516Z,53.62
2022-09-12T14:17:55.143Z,51.49
2022-09-12T14:21:02.878Z,52.65
2022-09-12T14:24:07.291Z,53.16
2022-09-12T14:27:10.496Z,52.55
2022-09-12T14:30:27.852Z,52.48
2022-09-12T14:33:49.127Z,52.17
2022-09-12T14:36:53.180Z,52.23
2022-09-12T14:39:55.275Z,51.96
2022-09-12T14:43:01.200Z,53.21
2022-09-12T14:46:22.140Z,53.97
2022-09-12T14:49:32.061Z,52.70
2022-09-12T14:52:35.288Z,53.60
2022-09-12T14:55:45.105Z,54.13
2022-09-12T14:58:47.498Z,53.74
2022-09-12T15:01:49.669Z,53.75
2022-09-12T15:04:54.649Z,52.92
2022-09-12T15:08:03.432Z,54.02
2022-09-12T15:11:07.094Z,55.42
2022-09-12T15:14:15.662Z,54.24
2022-09-12T15:17:17.839Z,54.18
2022-09-12T15:20:20.434Z,54.90
2022-09-12T15:23:35.762Z,54.13
2022-09-12T15:26:38.283Z,54.89
2022-09-12T15:29:40.730Z,54.71
2022-09-12T15:32:43.979Z,54.42
2022-09-12T15:35:47.090Z,54.84
2022-09-12T15:38:50.196Z,55.68
2022-09-12T15:41:52.575Z,56.05
2022-09-12T15:44:59.415Z,55.69
2022-09-12T15:48:04.505Z,56.14
2022-09-12T15:51:15.264Z,56.17
2022-09-12T15:54:18.610Z,56.08
2022-09-12T15:57:21.465Z,55.55
2022-09-12T16:00:24.131Z,56.92
2022-09-12T16:03:28.361Z,56.60
2022-09-12T16:06:36.785Z,57.36
2022-09-12T16:09:39.830Z,57.43
2022-09-12T16:12:44.278Z,58.03
2022-09-12T16:15:47.691Z,58.67
2022-09-12T16:18:49.891Z,58.95
2022-09-12T16:21:51.735Z,59.43
2022-09-12T16:24:54.533Z,60.09
2022-09-12T16:27:57.036Z,60.80
2022-09-12T16:31:01.491Z,61.17
2022-09-12T16:34:04.258Z,61.91
2022-09-12T16:37:06.918Z,61.99
2022-09-12T16:40:10.129Z,61.96
2022-09-12T16:43:12.740Z,62.31
2022-09-12T16:46:16.167Z,63.66
2022-09-12T16:49:18.121Z,64.12
2022-09-12T16:52:21.010Z,66.72
2022-09-12T16:55:22.977Z,67.41
2022-09-12T16:58:25.650Z,68.69
2022-09-12T17:01:28.084Z,70.86
2022-09-12T17:04:30.562Z,70.83
2022-09-12T17:07:34.629Z,71.24
2022-09-12T17:10:42.075Z,72.56
2022-09-12T17:14:10.714Z,74.47
2022-09-12T17:17:13.964Z,73.63
2022-09-12T17:20:16.361Z,75.31
2022-09-12T17:23:19.325Z,75.57
2022-09-12T17:26:21.657Z,76.24
2022-09-12T17:29:30.577Z,75.76
2022-09-12T17:32:33.890Z,76.18
2022-09-12T17:35:37.793Z,76.83
2022-09-12T17:38:40.405Z,78.01
2022-09-12T17:41:43.323Z,76.29
2022-09-12T17:44:45.841Z,75.94
2022-09-12T17:47:48.757Z,75.69
2022-09-12T17:50:51.046Z,75.76
2022-09-12T17:53:59.248Z,75.83
2022-09-12T17:57:01.440Z,75.40
2022-09-12T18:00:05.141Z,75.72
2022-09-12T18:03:14.732Z,75.15
2022-09-12T18:06:17.228Z,74.62
2022-09-12T18:09:22.769Z,74.93
2022-09-12T18:12:25.501Z,74.62
2022-09-12T18:15:27.448Z,75.38
2022-09-12T18:18:30.059Z,75.99
2022-09-12T18:21:32.331Z,75.84
2022-09-12T18:24:34.977Z,75.95
2022-09-12T18:27:37.236Z,74.83
2022-09-12T18:30:41.415Z,75.34
2022-09-12T18:33:45.009Z,75.34
2022-09-12T18:36:50.258Z,75.51
2022-09-12T18:39:52.301Z,75.42
2022-09-12T18:42:54.357Z,76.35
2022-09-12T18:45:56.947Z,76.59
2022-09-12T18:49:00.109Z,76.19
2022-09-12T18:52:03.046Z,76.27
2022-09-12T18:55:05.566Z,75.12
2022-09-12T18:58:07.887Z,75.94
2022-09-12T19:01:15.697Z,75.60
2022-09-12T19:04:18.791Z,75.33
2022-09-12T19:07:21.138Z,74.36
2022-09-12T19:10:23.243Z,74.08
2022-09-12T19:13:25.672Z,76.08
2022-09-12T19:16:29.075Z,75.45
2022-09-12T19:19:31.630Z,76.25
2022-09-12T19:22:34.003Z,76.80
2022-09-12T19:25:36.497Z,76.11
2022-09-12T19:28:39.798Z,76.14
2022-09-12T19:31:43.075Z,76.87
2022-09-12T19:34:45.647Z,76.17
2022-09-12T19:37:47.814Z,77.28
2022-09-12T19:41:00.342Z,77.40
2022-09-12T19:44:04.473Z,77.20
2022-09-12T19:47:06.944Z,77.04
2022-09-12T19:50:11.377Z,76.82
2022-09-12T19:53:13.651Z,76.25
2022-09-12T19:56:16.475Z,76.69
2022-09-12T19:59:18.920Z,76.25
2022-09-12T20:02:20.876Z,75.57
2022-09-12T20:05:23.589Z,75.83
2022-09-12T20:08:25.634Z,75.94
2022-09-12T20:11:27.642Z,75.60
2022-09-12T20:14:30.829Z,75.93
2022-09-12T20:17:32.745Z,76.92
2022-09-12T20:20:35.153Z,78.07
2022-09-12T20:23:37.380Z,78.34
2022-09-12T20:26:40.482Z,80.34
2022-09-12T20:29:42.961Z,79.87
2022-09-12T20:32:45.189Z,80.42
2022-09-12T20:35:47.408Z,79.84
2022-09-12T20:39:01.493Z,80.14
2022-09-12T20:42:03.562Z,80.17
2022-09-12T20:45:06.648Z,80.05
2022-09-12T20:48:08.773Z,79.89
2022-09-12T20:51:10.690Z,81.03
2022-09-12T20:54:13.025Z,81.22
2022-09-12T20:57:14.928Z,80.54
2022-09-12T21:00:17.600Z,79.96
2022-09-12T21:03:22.074Z,79.44
2022-09-12T21:06:24.295Z,79.07
2022-09-12T21:09:26.534Z,78.94
2022-09-12T21:12:29.217Z,79.96
2022-09-12T21:15:32.108Z,79.11
2022-09-12T21:18:34.818Z,78.85
2022-09-12T21:21:36.994Z,79.71
2022-09-12T21:24:38.996Z,78.87
2022-09-12T21:27:40.846Z,78.62
2022-09-12T21:30:44.308Z,79.08
2022-09-12T21:33:46.566Z,79.67
2022-09-12T21:36:48.513Z,79.97
2022-09-12T21:39:50.650Z,79.25
2022-09-12T21:42:52.614Z,79.05
2022-09-12T21:45:59.318Z,78.97
2022-09-12T21:49:01.273Z,79.55
2022-09-12T21:52:04.175Z,80.25
2022-09-12T21:55:07.515Z,78.96
2022-09-12T21:58:11.053Z,79.01
2022-09-12T22:01:13.198Z,79.54
2022-09-12T22:04:15.157Z,79.71
2022-09-12T22:07:17.325Z,79.76
2022-09-12T22:10:19.289Z,80.29
2022-09-12T22:13:21.894Z,79.83
2022-09-12T22:16:24.263Z,79.74
2022-09-12T22:19:26.819Z,80.24
2022-09-12T22:22:47.327Z,79.71
2022-09-12T22:25:49.141Z,80.93
2022-09-12T22:28:51.716Z,81.02
2022-09-12T22:31:53.838Z,82.06
2022-09-12T22:34:55.813Z,82.30
2022-09-12T22:37:58.079Z,83.80
2022-09-12T22:41:03.737Z,83.18
2022-09-12T22:44:06.586Z,82.39
2022-09-12T22:47:08.455Z,81.42
2022-09-12T22:50:10.339Z,82.77
2022-09-12T22:53:12.203Z,83.27
2022-09-12T22:56:13.969Z,84.32
2022-09-12T22:59:16.505Z,84.66
2022-09-12T23:02:18.561Z,83.94
2022-09-12T23:05:20.563Z,83.92
2022-09-12T23:08:22.552Z,83.99
2022-09-12T23:11:24.664Z,83.72
2022-09-12T23:14:27.045Z,84.77
2022-09-12T23:17:28.795Z,83.85
2022-09-12T23:20:30.577Z,84.94
2022-09-12T23:23:33.302Z,85.85
2022-09-12T23:26:35.092Z,86.32
2022-09-12T23:29:36.976Z,88.53
2022-09-12T23:32:38.977Z,88.67
2022-09-12T23:35:40.848Z,89.76
2022-09-12T23:38:45.138Z,90.87
2022-09-12T23:41:47.086Z,91.09
2022-09-12T23:44:48.999Z,91.56
2022-09-12T23:47:51.143Z,92.01
2022-09-12T23:50:53.604Z,92.09
2022-09-12T23:53:56.113Z,92.40
2022-09-12T23:56:57.838Z,93.01
2022-09-12T23:59:59.553Z,92.64
